createdAt,value
2019-04-16T00:00:15.106Z,39.20
2019-04-16T00:02:54.242Z,38.90
2019-04-16T00:05:27.460Z,39.00
2019-04-16T00:08:26.478Z,39.30
2019-04-16T00:11:00.242Z,40.00
2019-04-16T00:13:33.316Z,40.00
2019-04-16T00:16:02.071Z,39.30
2019-04-16T00:18:31.099Z,39.80
2019-04-16T00:21:01.533Z,39.90
2019-04-16T00:23:35.081Z,40.00
2019-04-16T00:26:03.906Z,40.50
2019-04-16T00:28:32.851Z,39.30
2019-04-16T00:31:01.678Z,40.00
2019-04-16T00:33:32.163Z,39.50
2019-04-16T00:36:01.175Z,40.10
2019-04-16T00:38:40.136Z,40.50
2019-04-16T00:41:01.888Z,39.90
2019-04-16T00:45:59.745Z,40.40
2019-04-16T00:48:28.644Z,40.30
2019-04-16T00:50:57.841Z,40.90
2019-04-16T00:53:26.717Z,40.40
2019-04-16T00:55:55.845Z,40.70
2019-04-16T00:58:24.752Z,41.50
2019-04-16T01:00:53.681Z,41.00
2019-04-16T01:03:22.701Z,40.80
2019-04-16T01:05:51.562Z,40.80
2019-04-16T01:08:20.820Z,41.10
2019-04-16T01:10:49.719Z,41.70
2019-04-16T01:13:18.730Z,41.10
2019-04-16T01:15:47.807Z,41.10
2019-04-16T01:18:16.926Z,40.90
2019-04-16T01:20:45.921Z,40.70
2019-04-16T01:23:17.557Z,42.10
2019-04-16T01:25:45.421Z,41.60
2019-04-16T01:28:19.063Z,40.70
2019-04-16T01:31:08.131Z,41.30
2019-04-16T01:33:36.772Z,41.60
2019-04-16T01:36:22.834Z,42.00
2019-04-16T01:39:07.628Z,41.70
2019-04-16T01:41:24.258Z,41.80
2019-04-16T01:43:54.288Z,41.40
2019-04-16T01:46:23.700Z,41.70
2019-04-16T01:48:52.578Z,41.70
2019-04-16T01:51:21.642Z,41.60
2019-04-16T01:53:52.373Z,41.60
2019-04-16T01:56:21.207Z,41.50
2019-04-16T01:58:50.111Z,42.00
2019-04-16T02:01:19.009Z,41.70
2019-04-16T02:03:49.011Z,41.70
2019-04-16T02:06:18.483Z,41.60
2019-04-16T02:08:47.220Z,41.60
2019-04-16T02:11:16.092Z,42.10
2019-04-16T02:13:46.155Z,41.80
2019-04-16T02:16:16.004Z,41.80
2019-04-16T02:18:45.034Z,42.10
2019-04-16T02:21:13.931Z,42.10
2019-04-16T02:23:45.306Z,42.20
2019-04-16T02:26:13.596Z,41.70
2019-04-16T02:28:42.646Z,42.50
2019-04-16T02:31:15.328Z,42.40
2019-04-16T02:33:42.169Z,42.20
2019-04-16T02:36:11.229Z,42.30
2019-04-16T02:38:46.293Z,42.10
2019-04-16T02:41:10.986Z,42.60
2019-04-16T02:43:41.216Z,42.10
2019-04-16T02:46:10.477Z,42.10
2019-04-16T02:48:39.565Z,42.10
2019-04-16T02:51:13.041Z,42.80
2019-04-16T02:53:43.409Z,42.90
2019-04-16T02:56:19.008Z,42.30
2019-04-16T02:59:09.695Z,42.40
2019-04-16T03:01:43.390Z,42.80
2019-04-16T03:04:14.037Z,43.00
2019-04-16T03:06:42.935Z,42.80
2019-04-16T03:09:12.084Z,42.30
2019-04-16T03:11:40.862Z,43.20
2019-04-16T03:14:09.865Z,42.90
2019-04-16T03:16:56.721Z,42.70
2019-04-16T03:19:27.219Z,43.10
2019-04-16T03:21:59.129Z,42.70
2019-04-16T03:24:26.705Z,42.50
2019-04-16T03:26:55.930Z,43.00
2019-04-16T03:29:27.474Z,42.60
2019-04-16T03:31:58.309Z,42.70
2019-04-16T03:34:26.138Z,43.20
2019-04-16T03:36:55.055Z,43.00
2019-04-16T03:39:24.054Z,43.20
2019-04-16T03:41:56.007Z,43.80
2019-04-16T03:44:23.800Z,43.20
2019-04-16T03:46:52.832Z,43.70
2019-04-16T03:49:24.596Z,43.10
2019-04-16T03:51:52.272Z,43.90
2019-04-16T03:54:22.471Z,43.50
2019-04-16T03:56:51.733Z,43.70
2019-04-16T03:59:20.744Z,43.90
2019-04-16T04:01:49.586Z,43.90
2019-04-16T04:04:18.704Z,44.20
2019-04-16T04:06:47.486Z,44.10
2019-04-16T04:09:18.870Z,43.80
2019-04-16T04:11:46.906Z,44.20
2019-04-16T04:14:15.820Z,43.70
2019-04-16T04:16:44.890Z,43.60
2019-04-16T04:19:15.144Z,44.00
2019-04-16T04:21:44.445Z,44.50
2019-04-16T04:24:13.415Z,44.20
2019-04-16T04:26:42.510Z,43.90
2019-04-16T04:29:11.728Z,44.50
2019-04-16T04:31:40.711Z,43.80
2019-04-16T04:34:10.850Z,43.80
2019-04-16T04:36:40.545Z,45.00
2019-04-16T04:39:14.443Z,44.20
2019-04-16T04:41:40.083Z,44.50
2019-04-16T04:44:09.012Z,45.00
2019-04-16T04:46:37.972Z,45.10
2019-04-16T04:49:06.959Z,45.10
2019-04-16T04:51:36.409Z,44.60
2019-04-16T04:54:06.588Z,45.10
2019-04-16T04:56:36.044Z,45.20
2019-04-16T04:59:05.395Z,45.20
2019-04-16T05:01:35.305Z,46.60
2019-04-16T05:04:18.964Z,46.00
2019-04-16T05:06:47.291Z,45.70
2019-04-16T05:09:16.071Z,45.60
2019-04-16T05:11:48.498Z,45.20
2019-04-16T05:14:15.462Z,46.20
2019-04-16T05:16:44.421Z,45.30
2019-04-16T05:19:14.796Z,45.60
2019-04-16T05:21:43.830Z,46.40
2019-04-16T05:24:13.052Z,46.20
2019-04-16T05:26:43.214Z,46.40
2019-04-16T05:29:17.046Z,46.00
2019-04-16T05:31:43.531Z,46.10
2019-04-16T05:34:12.715Z,46.30
2019-04-16T05:36:46.306Z,46.60
2019-04-16T05:39:12.276Z,46.80
2019-04-16T05:41:41.339Z,46.50
2019-04-16T05:44:10.542Z,46.00
2019-04-16T05:46:46.273Z,46.40
2019-04-16T05:49:12.059Z,46.40
2019-04-16T05:51:41.140Z,46.40
2019-04-16T05:54:12.399Z,46.30
2019-04-16T05:56:43.881Z,46.10
2019-04-16T05:59:14.583Z,46.40
2019-04-16T06:01:45.540Z,46.30
2019-04-16T06:04:15.512Z,45.90
2019-04-16T06:06:44.382Z,46.50
2019-04-16T06:09:13.652Z,46.00
2019-04-16T06:11:42.493Z,46.20
2019-04-16T06:14:19.487Z,46.40
2019-04-16T06:16:50.147Z,45.70
2019-04-16T06:19:20.950Z,45.90
2019-04-16T06:22:03.875Z,45.70
2019-04-16T06:24:43.260Z,45.70
2019-04-16T06:27:19.894Z,45.70
2019-04-16T06:30:06.621Z,46.40
2019-04-16T06:32:37.063Z,45.90
2019-04-16T06:35:23.737Z,45.60
2019-04-16T06:40:39.623Z,45.40
2019-04-16T06:43:25.245Z,45.20
2019-04-16T06:46:05.395Z,45.40
2019-04-16T06:48:35.431Z,45.60
2019-04-16T06:51:24.458Z,44.80
2019-04-16T06:54:04.839Z,45.20
2019-04-16T06:56:53.930Z,45.20
2019-04-16T06:59:30.915Z,45.10
2019-04-16T07:02:01.826Z,44.70
2019-04-16T07:04:32.364Z,44.30
2019-04-16T07:07:21.723Z,44.10
2019-04-16T07:09:57.648Z,44.20
2019-04-16T07:12:26.756Z,43.70
2019-04-16T07:14:55.736Z,43.40
2019-04-16T07:17:24.820Z,44.00
2019-04-16T07:19:53.797Z,43.30
2019-04-16T07:22:22.734Z,43.50
2019-04-16T07:24:53.312Z,43.00
2019-04-16T07:27:22.444Z,42.60
2019-04-16T07:29:53.320Z,42.70
2019-04-16T07:32:23.959Z,42.60
2019-04-16T07:34:57.842Z,42.60
2019-04-16T07:37:40.625Z,42.60
2019-04-16T07:40:20.393Z,41.90
2019-04-16T07:42:58.869Z,42.50
2019-04-16T07:45:29.138Z,42.40
2019-04-16T07:48:11.586Z,42.50
2019-04-16T07:50:58.216Z,41.60
2019-04-16T07:53:37.700Z,41.30
2019-04-16T07:56:17.348Z,41.50
2019-04-16T07:58:46.381Z,41.50
2019-04-16T08:01:16.472Z,41.50
2019-04-16T08:03:45.599Z,40.90
2019-04-16T08:06:14.734Z,41.00
2019-04-16T08:08:44.186Z,39.30
2019-04-16T08:11:13.727Z,39.80
2019-04-16T08:13:43.390Z,40.70
2019-04-16T08:16:12.425Z,40.10
2019-04-16T08:18:50.867Z,40.40
2019-04-16T08:21:22.550Z,39.70
2019-04-16T08:23:54.044Z,39.50
2019-04-16T08:26:25.824Z,36.20
2019-04-16T08:28:54.935Z,36.90
2019-04-16T08:31:25.672Z,35.30
2019-04-16T08:33:54.679Z,34.10
2019-04-16T08:36:23.525Z,33.30
2019-04-16T08:38:56.808Z,32.70
2019-04-16T08:41:25.701Z,32.80
2019-04-16T08:43:54.680Z,32.80
2019-04-16T08:46:23.718Z,32.70
2019-04-16T08:48:54.238Z,29.30
2019-04-16T08:51:30.104Z,27.70
2019-04-16T08:53:53.595Z,29.30
2019-04-16T08:56:22.595Z,29.70
2019-04-16T08:58:51.668Z,29.10
2019-04-16T09:01:23.554Z,28.70
2019-04-16T09:03:52.899Z,27.00
2019-04-16T09:06:21.909Z,27.20
2019-04-16T09:08:53.123Z,27.70
2019-04-16T09:11:23.939Z,26.80
2019-04-16T09:14:06.203Z,25.40
2019-04-16T09:16:43.627Z,27.00
2019-04-16T09:19:14.229Z,25.40
2019-04-16T09:21:44.398Z,25.30
2019-04-16T09:24:31.158Z,24.10
2019-04-16T09:27:07.555Z,24.10
2019-04-16T09:29:43.954Z,25.60
2019-04-16T09:32:24.656Z,25.90
2019-04-16T09:35:10.077Z,26.30
2019-04-16T09:37:53.440Z,25.60
2019-04-16T09:40:36.362Z,22.80
2019-04-16T09:43:17.257Z,25.20
2019-04-16T09:45:46.000Z,24.30
2019-04-16T09:48:15.102Z,24.90
2019-04-16T09:50:47.725Z,24.20
2019-04-16T09:53:17.702Z,24.00
2019-04-16T09:55:47.627Z,24.20
2019-04-16T09:58:22.175Z,23.40
2019-04-16T10:00:53.073Z,24.20
2019-04-16T10:03:30.013Z,23.50
2019-04-16T10:05:59.052Z,23.80
2019-04-16T10:08:29.475Z,23.60
2019-04-16T10:11:02.746Z,23.60
2019-04-16T10:13:31.798Z,23.30
2019-04-16T10:16:00.158Z,22.80
2019-04-16T10:18:31.974Z,22.90
2019-04-16T10:20:59.863Z,22.70
2019-04-16T10:23:33.464Z,22.80
2019-04-16T10:26:02.559Z,22.40
2019-04-16T10:28:37.122Z,22.40
2019-04-16T10:31:04.760Z,21.70
2019-04-16T10:33:33.644Z,22.40
2019-04-16T10:36:04.807Z,22.30
2019-04-16T10:38:50.064Z,22.50
2019-04-16T10:41:23.472Z,21.20
2019-04-16T10:43:57.040Z,22.40
2019-04-16T10:46:27.703Z,22.30
2019-04-16T10:49:14.733Z,21.90
2019-04-16T10:51:45.352Z,21.80
2019-04-16T10:54:21.929Z,22.00
2019-04-16T10:57:01.611Z,21.80
2019-04-16T10:59:37.920Z,21.70
2019-04-16T11:02:10.709Z,20.50
2019-04-16T11:04:44.028Z,20.90
2019-04-16T11:07:17.744Z,20.80
2019-04-16T11:09:46.622Z,21.50
2019-04-16T11:12:15.701Z,21.90
2019-04-16T11:14:44.643Z,21.10
2019-04-16T11:17:13.671Z,21.10
2019-04-16T11:19:42.644Z,21.60
2019-04-16T11:22:11.790Z,21.10
2019-04-16T11:24:40.947Z,21.10
2019-04-16T11:27:09.921Z,20.70
2019-04-16T11:29:42.083Z,21.20
2019-04-16T11:32:09.870Z,20.90
2019-04-16T11:34:38.778Z,20.20
2019-04-16T11:37:09.311Z,20.20
2019-04-16T11:39:38.626Z,19.00
2019-04-16T11:42:07.540Z,19.20
2019-04-16T11:44:36.626Z,19.30
2019-04-16T11:47:06.947Z,18.40
2019-04-16T11:49:36.102Z,17.50
2019-04-16T11:52:05.636Z,16.80
2019-04-16T11:54:34.937Z,17.00
2019-04-16T11:57:04.257Z,16.50
2019-04-16T11:59:33.634Z,17.00
2019-04-16T12:02:19.419Z,16.80
2019-04-16T12:04:59.071Z,16.10
2019-04-16T12:07:28.213Z,17.70
2019-04-16T12:10:13.779Z,17.40
2019-04-16T12:12:53.141Z,17.00
2019-04-16T12:15:26.428Z,16.90
2019-04-16T12:18:06.016Z,16.80
2019-04-16T12:20:45.691Z,17.00
2019-04-16T12:23:16.275Z,16.20
2019-04-16T12:25:58.775Z,17.00
2019-04-16T12:28:45.070Z,17.10
2019-04-16T12:31:32.519Z,17.10
2019-04-16T12:34:03.150Z,16.10
2019-04-16T12:36:36.267Z,17.00
2019-04-16T12:39:24.726Z,16.80
2019-04-16T12:42:04.279Z,15.30
2019-04-16T12:44:45.133Z,16.80
2019-04-16T12:47:22.103Z,17.00
2019-04-16T12:50:01.364Z,16.30
2019-04-16T12:52:34.737Z,16.40
2019-04-16T12:55:08.340Z,16.20
2019-04-16T12:57:58.688Z,16.00
2019-04-16T13:00:38.690Z,14.60
2019-04-16T13:03:18.322Z,15.20
2019-04-16T13:05:50.931Z,15.80
2019-04-16T13:08:36.509Z,15.30
2019-04-16T13:11:08.637Z,16.00
2019-04-16T13:13:54.067Z,16.30
2019-04-16T13:16:24.543Z,16.00
2019-04-16T13:19:07.073Z,16.00
2019-04-16T13:21:37.465Z,15.50
2019-04-16T13:24:07.883Z,15.80
2019-04-16T13:26:41.631Z,16.20
2019-04-16T13:34:44.324Z,16.10
2019-04-16T13:37:13.433Z,16.10
2019-04-16T13:39:46.932Z,16.20
2019-04-16T13:42:15.781Z,16.10
2019-04-16T13:44:46.295Z,16.10
2019-04-16T13:47:15.260Z,16.20
2019-04-16T13:49:45.758Z,16.40
2019-04-16T13:52:17.068Z,16.50
2019-04-16T13:54:53.334Z,16.50
2019-04-16T13:57:23.863Z,16.50
2019-04-16T14:00:04.330Z,16.40
2019-04-16T14:02:32.257Z,15.60
2019-04-16T14:05:04.260Z,16.20
2019-04-16T14:07:31.781Z,16.30
2019-04-16T14:10:00.636Z,15.80
2019-04-16T14:12:41.725Z,15.80
2019-04-16T14:15:00.182Z,15.60
2019-04-16T14:17:29.660Z,15.60
2019-04-16T14:19:58.764Z,15.60
2019-04-16T14:22:27.600Z,15.90
2019-04-16T14:24:56.495Z,15.70
2019-04-16T14:27:25.448Z,16.10
2019-04-16T14:29:54.481Z,16.60
2019-04-16T14:32:23.480Z,16.90
2019-04-16T14:34:56.766Z,17.00
2019-04-16T14:37:25.666Z,17.30
2019-04-16T14:39:58.977Z,17.60
2019-04-16T14:42:28.048Z,17.60
2019-04-16T14:45:13.829Z,18.50
2019-04-16T14:47:43.453Z,18.40
2019-04-16T14:50:13.763Z,18.80
2019-04-16T14:52:42.951Z,19.30
2019-04-16T14:55:19.012Z,19.50
2019-04-16T14:58:04.702Z,19.80
2019-04-16T15:00:50.078Z,20.00
2019-04-16T15:03:36.914Z,20.40
2019-04-16T15:06:12.943Z,20.50
2019-04-16T15:08:45.758Z,20.80
2019-04-16T15:11:32.567Z,20.90
2019-04-16T15:14:03.037Z,21.20
2019-04-16T15:16:33.412Z,21.90
2019-04-16T15:19:12.414Z,22.10
2019-04-16T15:21:59.441Z,21.70
2019-04-16T15:24:29.902Z,22.40
2019-04-16T15:27:00.626Z,22.70
2019-04-16T15:29:33.830Z,22.70
2019-04-16T15:32:10.330Z,23.00
2019-04-16T15:34:42.818Z,22.90
2019-04-16T15:37:15.943Z,23.60
2019-04-16T15:39:49.196Z,23.40
2019-04-16T15:42:19.607Z,23.90
2019-04-16T15:44:57.400Z,23.20
2019-04-16T15:47:31.758Z,24.10
2019-04-16T15:50:00.227Z,23.60
2019-04-16T15:52:46.054Z,24.10
2019-04-16T15:55:24.512Z,24.00
2019-04-16T15:57:55.310Z,24.00
2019-04-16T16:00:28.444Z,23.90
2019-04-16T16:02:59.132Z,25.30
2019-04-16T16:05:29.901Z,24.60
2019-04-16T16:08:16.612Z,24.80
2019-04-16T16:10:47.224Z,24.80
2019-04-16T16:13:16.265Z,25.00
2019-04-16T16:15:45.178Z,25.00
2019-04-16T16:18:13.986Z,25.00
2019-04-16T16:20:43.021Z,25.20
2019-04-16T16:23:11.874Z,25.50
2019-04-16T16:25:41.422Z,25.20
2019-04-16T16:28:11.041Z,25.60
2019-04-16T16:30:41.270Z,25.00
2019-04-16T16:33:10.207Z,24.90
2019-04-16T16:35:39.279Z,26.00
2019-04-16T16:38:08.177Z,25.20
2019-04-16T16:40:38.753Z,25.90
2019-04-16T16:43:08.720Z,25.80
2019-04-16T16:45:45.405Z,26.00
2019-04-16T16:48:14.251Z,26.10
2019-04-16T16:50:44.007Z,26.00
2019-04-16T16:53:18.012Z,26.10
2019-04-16T16:55:48.720Z,26.30
2019-04-16T16:58:28.068Z,25.70
2019-04-16T17:01:16.775Z,25.80
2019-04-16T17:03:52.617Z,25.80
2019-04-16T17:06:21.964Z,26.00
2019-04-16T17:08:50.791Z,26.30
2019-04-16T17:11:19.678Z,26.40
2019-04-16T17:13:48.585Z,25.90
2019-04-16T17:16:17.581Z,25.90
2019-04-16T17:18:46.432Z,26.50
2019-04-16T17:21:15.454Z,26.00
2019-04-16T17:23:44.464Z,26.70
2019-04-16T17:26:15.982Z,26.80
2019-04-16T17:28:44.268Z,26.70
2019-04-16T17:31:13.312Z,28.00
2019-04-16T17:33:42.208Z,29.70
2019-04-16T17:36:11.333Z,31.20
2019-04-16T17:38:40.301Z,32.90
2019-04-16T17:41:11.071Z,34.20
2019-04-16T17:44:02.282Z,35.00
2019-04-16T17:46:44.928Z,35.10
2019-04-16T17:49:24.251Z,35.20
2019-04-16T17:52:06.945Z,37.00
2019-04-16T17:54:37.533Z,37.70
2019-04-16T17:57:07.984Z,37.10
2019-04-16T17:59:44.512Z,37.10
2019-04-16T18:02:20.904Z,38.30
2019-04-16T18:04:51.588Z,38.30
2019-04-16T18:07:50.101Z,38.70
2019-04-16T18:10:22.565Z,38.80
2019-04-16T18:12:56.738Z,38.50
2019-04-16T18:15:27.941Z,38.50
2019-04-16T18:18:16.927Z,38.70
2019-04-16T18:20:58.871Z,40.50
2019-04-16T18:23:40.494Z,40.60
2019-04-16T18:26:29.365Z,40.60
2019-04-16T18:29:01.594Z,40.40
2019-04-16T18:31:33.463Z,41.00
2019-04-16T18:34:13.294Z,40.70
2019-04-16T18:36:44.720Z,42.60
2019-04-16T18:39:16.019Z,42.40
2019-04-16T18:41:50.343Z,42.40
2019-04-16T18:44:33.257Z,42.70
2019-04-16T18:47:16.952Z,43.00
2019-04-16T18:49:48.361Z,41.80
2019-04-16T18:52:17.848Z,43.10
2019-04-16T18:54:49.348Z,42.40
2019-04-16T18:57:18.067Z,42.30
2019-04-16T18:59:47.257Z,42.50
2019-04-16T19:02:16.565Z,42.80
2019-04-16T19:04:45.898Z,42.00
2019-04-16T19:07:15.042Z,42.00
2019-04-16T19:09:45.192Z,42.20
2019-04-16T19:12:15.281Z,41.60
2019-04-16T19:14:44.657Z,42.10
2019-04-16T19:17:16.663Z,41.60
2019-04-16T19:19:45.749Z,42.80
2019-04-16T19:22:15.307Z,41.60
2019-04-16T19:24:45.212Z,42.00
2019-04-16T19:27:14.793Z,42.80
2019-04-16T19:29:45.447Z,42.40
2019-04-16T19:32:15.163Z,43.30
2019-04-16T19:34:44.936Z,42.70
2019-04-16T19:37:14.591Z,42.70
2019-04-16T19:39:46.864Z,43.10
2019-04-16T19:42:15.885Z,43.20
2019-04-16T19:44:45.351Z,43.00
2019-04-16T19:47:14.887Z,43.00
2019-04-16T19:49:45.207Z,43.30
2019-04-16T19:52:17.320Z,42.60
2019-04-16T19:54:45.843Z,43.50
2019-04-16T19:57:15.296Z,43.20
2019-04-16T19:59:46.586Z,43.60
2019-04-16T20:02:15.407Z,43.50
2019-04-16T20:04:45.106Z,43.50
2019-04-16T20:07:14.627Z,43.70
2019-04-16T20:09:43.957Z,44.50
2019-04-16T20:12:13.265Z,44.00
2019-04-16T20:14:42.171Z,44.00
2019-04-16T20:17:11.317Z,45.30
2019-04-16T20:19:58.711Z,44.10
2019-04-16T20:22:28.829Z,45.50
2019-04-16T20:25:00.210Z,43.80
2019-04-16T20:27:29.316Z,44.40
2019-04-16T20:29:59.489Z,44.30
2019-04-16T20:32:30.912Z,44.10
2019-04-16T20:35:00.741Z,44.50
2019-04-16T20:37:30.308Z,44.80
2019-04-16T20:39:59.648Z,44.90
2019-04-16T20:42:28.977Z,44.00
2019-04-16T20:44:58.430Z,44.70
2019-04-16T20:47:27.435Z,44.50
2019-04-16T20:49:56.671Z,45.00
2019-04-16T20:52:25.582Z,45.50
2019-04-16T20:54:54.667Z,44.90
2019-04-16T20:57:25.624Z,45.20
2019-04-16T20:59:54.693Z,45.80
2019-04-16T21:02:24.085Z,45.10
2019-04-16T21:07:21.752Z,44.70
2019-04-16T21:09:50.742Z,45.20
2019-04-16T21:12:19.804Z,45.40
2019-04-16T21:14:50.891Z,46.30
2019-04-16T21:17:19.295Z,45.90
2019-04-16T21:19:48.561Z,45.70
2019-04-16T21:22:18.004Z,46.00
2019-04-16T21:24:46.784Z,46.70
2019-04-16T21:27:15.704Z,45.60
2019-04-16T21:29:44.751Z,45.90
2019-04-16T21:32:24.898Z,45.90
2019-04-16T21:35:13.530Z,46.10
2019-04-16T21:37:56.021Z,46.80
2019-04-16T21:40:25.068Z,46.90
2019-04-16T21:42:53.955Z,46.20
2019-04-16T21:45:22.708Z,46.00
2019-04-16T21:47:54.767Z,46.60
2019-04-16T21:50:22.316Z,47.10
2019-04-16T21:52:55.097Z,46.80
2019-04-16T21:55:22.363Z,46.20
2019-04-16T21:57:51.411Z,46.60
2019-04-16T22:00:21.925Z,46.60
2019-04-16T22:02:52.425Z,46.60
2019-04-16T22:05:21.262Z,45.80
2019-04-16T22:07:50.155Z,47.30
2019-04-16T22:10:19.169Z,46.70
2019-04-16T22:12:48.747Z,46.50
2019-04-16T22:15:17.934Z,47.70
2019-04-16T22:17:46.846Z,47.10
2019-04-16T22:20:15.815Z,47.30
2019-04-16T22:22:46.555Z,47.70
2019-04-16T22:25:15.309Z,48.20
2019-04-16T22:27:44.196Z,47.50
2019-04-16T22:30:13.209Z,48.30
2019-04-16T22:32:42.181Z,47.00
2019-04-16T22:35:11.171Z,47.60
2019-04-16T22:37:40.023Z,46.90
2019-04-16T22:40:26.728Z,46.90
2019-04-16T22:43:13.749Z,48.00
2019-04-16T22:45:44.337Z,47.70
2019-04-16T22:48:13.212Z,47.30
2019-04-16T22:50:42.216Z,47.80
2019-04-16T22:53:11.244Z,47.50
2019-04-16T22:55:42.567Z,48.00
2019-04-16T22:58:12.293Z,48.80
2019-04-16T23:00:44.480Z,48.20
2019-04-16T23:03:13.384Z,48.00
2019-04-16T23:05:42.363Z,48.40
2019-04-16T23:08:12.906Z,48.00
2019-04-16T23:10:41.647Z,48.60
2019-04-16T23:13:10.616Z,48.40
2019-04-16T23:15:40.225Z,48.90
2019-04-16T23:18:09.200Z,49.40
2019-04-16T23:20:39.686Z,49.10
2019-04-16T23:23:08.562Z,48.60
2019-04-16T23:25:37.662Z,48.80
2019-04-16T23:28:09.965Z,48.80
2019-04-16T23:30:37.333Z,49.70
2019-04-16T23:33:06.473Z,50.40
2019-04-16T23:35:35.408Z,50.10
2019-04-16T23:38:04.350Z,49.80
2019-04-16T23:40:33.477Z,49.80
2019-04-16T23:43:12.864Z,50.60
2019-04-16T23:46:01.703Z,51.10
2019-04-16T23:48:37.904Z,51.50
2019-04-16T23:51:28.753Z,51.10
2019-04-16T23:54:12.027Z,51.30
2019-04-16T23:56:40.898Z,51.50
2019-04-16T23:59:17.638Z,50.80
